Impacts TAF Board INFO
FOR SITUATIONAL AWARENESS. NOT TO BE USED FOR FLIGHT PLANNING PURPOSES.
IDs:

KDFW - Dallas-Ft Worth Intl, TX, US

Issued at 0520 UTC 13 Dec 2017
Updated at 0532 UTC 13 Dec 2017
Potential Impact None Slight Moderate High
Time<<14/06Z 14/07Z 14/08Z 14/09Z 14/10Z 14/11Z 14/12Z 14/13Z 14/14Z 14/15Z 14/16Z 14/17Z 14/18Z
Type PRVL PRVL PRVL PRVL PRVL PRVL
VIS >6 >6 >6 >6 >6 >6
CIG -- -- -- -- -- --
Cover SKC SKC SKC SKC SKC SKC
FltCat VFR VFR VFR VFR VFR VFR
WX -- -- -- -- -- --
WDir 340 340 340 340 340 340
WSpd 11 11 11 11 11 11
WGst -- -- -- -- -- --

Raw TAF
KDFW 130520Z 1306/1412 24004KT P6SM SKC
  FM131600 22015KT P6SM SKC
  FM140400 34011KT P6SM SKC


METAR Board
Radar Display
Forecast Discussion

FOR SITUATIONAL AWARENESS. NOT TO BE USED FOR FLIGHT PLANNING PURPOSES.